Oklahoma City, OK (73111)

4:10 PM CDT on October 25, 2014 (GMT -0500)
RB Akins Co | Change Station
CLOSE
Current Station
Personal Weather Station
Location: Oklahoma City, OK
Elevation: 1175 ft
Nearby Weather Stations

Elev 1175 ft 35.52 °N, 97.51 °W | Updated 15 minutes ago

Clear
Clear
93.4 °F
Feels Like 92 °F
N
7.8
Wind Variable Wind from SSW

Today
High -- | Low -- °F
--% Chance of Precip.
Yesterday
High -- | Low -- °F
Precip. -- in
7:45 AM 6:42 PM
Waxing Crescent, 4% visible
Pressure 30.04 in
Visibility 10.0 miles
Clouds Clear
Heat Index 92 °F
Dew Point 55 °F
Humidity 28%
Rainfall 0.00 in
Snow Depth Not available.
UV 3 out of 12
Pollen 5.60 out of 12
Ozone Moderate
PM2.5 Good
Flu Activity Sporadic
METAR KTIK 252058Z AUTO 23009KT 10SM CLR 32/15 A3005 RMK AO2 SLP170 57016

More Conditions Fewer Conditions

Pressure 30.04 in
Visibility 10.0 miles
Clouds Clear
Heat Index 92 °F
Dew Point 55 °F
Humidity 28%
Rainfall 0.00 in
Snow Depth Not available.
UV 3 out of 12
Pollen 5.60 out of 12
Ozone Moderate
PM2.5 Good
Flu Activity Sporadic
METAR KTIK 252058Z AUTO 23009KT 10SM CLR 32/15 A3005 RMK AO2 SLP170 57016

More Conditions Fewer Conditions

10-Day Weather Forecast

Almanac

Astronomy

Oct. 25, 2014 Rise Set
Actual Time 7:45 AM CDT 6:42 PM CDT
Civil Twilight 7:19 AM CDT 7:08 PM CDT
Nautical Twilight 6:49 AM CDT 7:38 PM CDT
Astronomical Twilight 6:19 AM CDT 8:07 PM CDT
Moon 9:22 AM CDT 8:09 PM CDT
Length of Visible Light 11h 49m
Length of Day
10h 57m
Tomorrow will be 2m 2s shorter.
Waxing Crescent, 4% of the Moon is Illuminated
Today
Waxing Crescent
Oct 30
First Quarter
Nov 6
Full
Nov 14
Last Quarter
Nov 22
New

Today's Extremes

State Highs State Lows

Community

WunderPhotos

Upload Photos

1,764,997 photos uploaded!

Nearby

Air Quality

  Air Quality AQ Index Pollutant
Yesterday Moderate
PM2.5
Yesterday Good
OZONE
Current Moderate
OZONE
Current Good
PM2.5
Saturday Moderate
PM2.5
Saturday Good
OZONE
Sunday Moderate
PM2.5
Sunday Good
OZONE
Monday Moderate
PM2.5
Monday Good
OZONE
Tuesday Moderate
PM2.5
Tuesday Good
OZONE
Wednesday Good
OZONE
Wednesday Good
PM2.5

Snow Depth

Station Depth Elevation
No new snow has been reported.

Earthquake Activity

City Distance Mag. Time & Date
Mooreland, Oklahoma 109 miles 2.9 3:21 PM CDT
2014-10-25
Jones, Oklahoma 15 miles 3.0 12:10 PM CDT
2014-10-25
Langston, Oklahoma 26 miles 3.0 7:36 AM CDT
2014-10-25
Pawnee, Oklahoma 63 miles 2.6 7:24 PM CDT
2014-10-24
Minimum magnitude displayed is 2.5.

Coastal Water Temperatures

Place Temperature
No Stations Reporting

Nearby Weather Stations